Time;durP1;ratioP1;P1;durP2;ratioP2;P2;SDS_P1;SDS_P2;PMS_P1;PMS_P2;Temp;Humidity;BMP_temperature;BMP_pressure;BME280_temperature;BME280_humidity;BME280_pressure;Samples;Min_cycle;Max_cycle;Signal;HPM_P1;HPM_P2
2022/01/14 00:02:01;;;;;;;;;;;18.70;44.80;;;;;;5064999;28;43063;-79
2022/01/14 00:04:26;;;;;;;;;;;18.70;44.70;;;;;;5047118;28;44600;-79
2022/01/14 00:06:52;;;;;;;;;;;18.70;44.70;;;;;;5065224;28;42932;-81
2022/01/14 00:09:18;;;;;;;;;;;18.70;44.80;;;;;;5065261;28;43463;-81
2022/01/14 00:11:54;;;;;;;;;;;18.70;44.80;;;;;;5065018;28;42955;-80
2022/01/14 00:14:41;;;;;;;;;;;18.70;44.70;;;;;;5064622;28;43402;-80
2022/01/14 00:17:08;;;;;;;;;;;18.70;44.80;;;;;;5065167;28;42916;-80
2022/01/14 00:19:34;;;;;;;;;;;18.70;44.80;;;;;;5064508;28;43466;-81
2022/01/14 00:22:05;;;;;;;;;;;18.70;44.70;;;;;;5065593;28;43156;-81
2022/01/14 00:31:42;;;;;;;;;;;18.70;44.70;;;;;;5064841;28;42864;-81
2022/01/14 00:32:57;;;;;;;;;;;18.70;44.70;;;;;;5064880;28;42744;-81
2022/01/14 00:35:22;;;;;;;;;;;18.70;44.80;;;;;;5064488;28;42928;-79
2022/01/14 00:37:48;;;;;;;;;;;18.70;44.80;;;;;;5064455;28;42762;-79
2022/01/14 00:40:14;;;;;;;;;;;18.70;44.80;;;;;;5064530;28;42913;-79
2022/01/14 00:42:40;;;;;;;;;;;18.70;44.80;;;;;;5046116;28;42932;-76
2022/01/14 00:45:07;;;;;;;;;;;18.70;44.90;;;;;;5064234;28;42865;-80
2022/01/14 00:47:34;;;;;;;;;;;18.70;44.80;;;;;;5064433;28;42939;-79
2022/01/14 00:50:00;;;;;;;;;;;18.70;44.90;;;;;;5064946;28;42933;-81
2022/01/14 00:52:26;;;;;;;;;;;18.70;45.30;;;;;;5064874;28;42997;-79
2022/01/14 00:54:51;;;;;;;;;;;18.70;45.20;;;;;;5066602;28;42933;-80
2022/01/14 00:57:28;;;;;;;;;;;18.70;45.20;;;;;;5068328;28;42756;-79
2022/01/14 00:59:54;;;;;;;;;;;18.70;45.10;;;;;;5066970;28;42961;-80
2022/01/14 01:02:20;;;;;;;;;;;18.70;45.10;;;;;;5067870;28;43087;-80
2022/01/14 01:04:45;;;;;;;;;;;18.70;45.20;;;;;;5067505;28;42994;-76
2022/01/14 01:07:12;;;;;;;;;;;18.60;45.10;;;;;;5067476;28;43039;-79
2022/01/14 01:09:41;;;;;;;;;;;18.70;45.20;;;;;;5067727;28;42983;-80
2022/01/14 01:12:14;;;;;;;;;;;18.70;45.40;;;;;;5067878;28;42920;-71
2022/01/14 01:14:47;;;;;;;;;;;18.70;45.40;;;;;;5068179;28;43779;-78
2022/01/14 01:17:13;;;;;;;;;;;18.70;45.40;;;;;;5068241;28;42870;-76
2022/01/14 01:19:39;;;;;;;;;;;18.60;45.40;;;;;;5066608;28;43644;-75
2022/01/14 01:22:05;;;;;;;;;;;18.60;45.60;;;;;;5070459;28;42833;-72
2022/01/14 01:24:30;;;;;;;;;;;18.60;45.70;;;;;;5070514;28;42706;-73
2022/01/14 01:26:56;;;;;;;;;;;18.70;45.90;;;;;;5067991;28;42890;-72
2022/01/14 01:31:53;;;;;;;;;;;18.60;46.10;;;;;;5067404;28;43112;-77
2022/01/14 01:34:20;;;;;;;;;;;18.60;46.00;;;;;;5067549;28;43676;-79
2022/01/14 01:36:48;;;;;;;;;;;18.60;46.40;;;;;;5049495;28;42980;-75
2022/01/14 01:39:15;;;;;;;;;;;18.60;46.30;;;;;;5067222;28;43489;-77
2022/01/14 01:41:42;;;;;;;;;;;18.60;46.40;;;;;;5067586;28;43375;-74
2022/01/14 01:44:08;;;;;;;;;;;18.60;46.90;;;;;;5067363;28;43138;-76
2022/01/14 01:46:38;;;;;;;;;;;18.60;47.10;;;;;;5067174;28;42841;-78
2022/01/14 01:49:05;;;;;;;;;;;18.40;47.10;;;;;;5067349;28;43448;-77
2022/01/14 01:51:30;;;;;;;;;;;18.60;47.20;;;;;;5067234;28;42975;-73
2022/01/14 01:53:56;;;;;;;;;;;18.60;47.40;;;;;;5067034;28;43479;-72
2022/01/14 01:56:21;;;;;;;;;;;18.60;47.60;;;;;;5066937;28;42951;-74
2022/01/14 01:58:47;;;;;;;;;;;18.60;47.60;;;;;;5067051;28;42962;-74
2022/01/14 02:01:12;;;;;;;;;;;18.60;47.70;;;;;;5067097;28;43012;-74
2022/01/14 02:03:38;;;;;;;;;;;18.60;47.70;;;;;;5048480;28;43315;-72
2022/01/14 02:06:04;;;;;;;;;;;18.60;47.70;;;;;;5066132;28;43086;-76
2022/01/14 02:08:30;;;;;;;;;;;18.60;47.80;;;;;;5066037;28;43032;-73
2022/01/14 02:10:56;;;;;;;;;;;18.60;47.90;;;;;;5048450;28;42846;-77
2022/01/14 02:13:22;;;;;;;;;;;18.60;47.80;;;;;;5066708;28;43675;-71
2022/01/14 02:15:51;;;;;;;;;;;18.60;47.80;;;;;;5066638;28;43009;-77
2022/01/14 02:18:32;;;;;;;;;;;18.60;47.80;;;;;;5066973;28;43296;-74
2022/01/14 02:23:47;;;;;;;;;;;18.60;47.90;;;;;;5066060;28;43086;-73
2022/01/14 02:26:13;;;;;;;;;;;18.60;47.90;;;;;;5067108;28;42982;-71
2022/01/14 02:28:41;;;;;;;;;;;18.60;48.00;;;;;;5067146;28;43393;-78
2022/01/14 02:31:06;;;;;;;;;;;18.60;48.00;;;;;;5067188;28;42912;-74
2022/01/14 02:33:32;;;;;;;;;;;18.60;48.10;;;;;;5066476;28;44321;-70
2022/01/14 02:35:59;;;;;;;;;;;18.60;48.00;;;;;;5066433;28;42932;-78
2022/01/14 02:38:25;;;;;;;;;;;18.50;48.00;;;;;;5066580;28;43849;-75
2022/01/14 02:40:50;;;;;;;;;;;18.70;48.30;;;;;;5066098;28;42860;-70
2022/01/14 02:43:16;;;;;;;;;;;18.70;48.40;;;;;;5066430;28;42947;-77
2022/01/14 02:45:46;;;;;;;;;;;18.70;48.20;;;;;;5066342;28;43032;-76
2022/01/14 02:48:12;;;;;;;;;;;18.70;48.30;;;;;;5062355;28;42824;-73
2022/01/14 02:50:41;;;;;;;;;;;18.70;48.20;;;;;;5024679;28;43038;-75
2022/01/14 02:56:19;;;;;;;;;;;18.70;48.30;;;;;;4963105;28;42999;-76
2022/01/14 02:58:47;;;;;;;;;;;19.50;48.80;;;;;;4964398;28;43543;-77
2022/01/14 03:01:14;;;;;;;;;;;18.70;48.50;;;;;;4947930;28;42890;-73
2022/01/14 03:03:40;;;;;;;;;;;18.70;48.40;;;;;;4963514;28;42912;-80
2022/01/14 03:06:06;;;;;;;;;;;18.70;48.60;;;;;;4963453;28;43019;-80
2022/01/14 03:08:33;;;;;;;;;;;18.70;48.60;;;;;;4963105;28;43411;-80
2022/01/14 03:11:05;;;;;;;;;;;18.70;48.60;;;;;;4962591;28;59733;-81
2022/01/14 03:13:30;;;;;;;;;;;18.70;48.80;;;;;;4963323;28;42958;-78
2022/01/14 03:15:56;;;;;;;;;;;18.70;48.70;;;;;;4965171;28;42841;-79
2022/01/14 03:18:31;;;;;;;;;;;18.70;48.80;;;;;;4965423;28;43673;-77
2022/01/14 03:21:09;;;;;;;;;;;18.70;48.80;;;;;;4982874;28;42916;-81
2022/01/14 03:23:42;;;;;;;;;;;18.70;48.80;;;;;;4983506;28;43350;-80
2022/01/14 03:26:08;;;;;;;;;;;18.70;49.30;;;;;;4966303;28;43253;-80
2022/01/14 03:28:33;;;;;;;;;;;18.70;49.00;;;;;;4983278;28;43004;-79
2022/01/14 03:30:59;;;;;;;;;;;18.70;49.20;;;;;;5001641;28;43049;-80
2022/01/14 03:33:24;;;;;;;;;;;18.70;49.30;;;;;;5004158;28;43677;-80
2022/01/14 03:35:50;;;;;;;;;;;18.70;49.20;;;;;;5004676;28;42929;-79
2022/01/14 03:38:16;;;;;;;;;;;18.70;49.20;;;;;;5005146;28;43428;-79
2022/01/14 03:40:41;;;;;;;;;;;18.70;49.40;;;;;;5005056;28;42934;-80
2022/01/14 03:43:07;;;;;;;;;;;18.70;49.40;;;;;;5004978;28;43765;-80
2022/01/14 03:45:32;;;;;;;;;;;18.70;49.90;;;;;;5004312;28;42988;-78
2022/01/14 03:47:58;;;;;;;;;;;18.70;49.50;;;;;;5004103;28;44260;-80
2022/01/14 03:50:25;;;;;;;;;;;18.70;49.80;;;;;;5004132;28;43151;-79
2022/01/14 03:52:50;;;;;;;;;;;18.70;49.80;;;;;;5004937;28;43106;-80
2022/01/14 03:55:16;;;;;;;;;;;18.60;49.60;;;;;;5004297;28;42948;-79
2022/01/14 03:57:42;;;;;;;;;;;18.70;50.00;;;;;;5003528;28;44581;-79
2022/01/14 04:00:08;;;;;;;;;;;18.60;49.70;;;;;;5004793;28;42762;-80
2022/01/14 04:02:33;;;;;;;;;;;18.70;49.80;;;;;;5004869;28;43466;-81
2022/01/14 04:04:59;;;;;;;;;;;18.70;49.90;;;;;;5004709;28;43003;-80
2022/01/14 04:07:24;;;;;;;;;;;18.60;49.80;;;;;;5022887;28;43062;-80
2022/01/14 04:09:50;;;;;;;;;;;18.70;49.90;;;;;;5024409;28;42938;-79
2022/01/14 04:12:28;;;;;;;;;;;18.70;49.80;;;;;;5024031;28;42930;-80
2022/01/14 04:17:19;;;;;;;;;;;18.60;49.70;;;;;;5023374;28;42826;-80
2022/01/14 04:19:45;;;;;;;;;;;18.70;49.70;;;;;;5024100;28;42878;-79
2022/01/14 04:22:10;;;;;;;;;;;18.70;49.70;;;;;;5024189;28;42879;-80
2022/01/14 04:24:36;;;;;;;;;;;18.60;49.70;;;;;;5032203;28;42874;-74
2022/01/14 04:27:01;;;;;;;;;;;18.60;49.60;;;;;;5054468;28;42898;-78
2022/01/14 04:29:27;;;;;;;;;;;18.60;49.60;;;;;;5046196;28;42946;-78
2022/01/14 04:31:52;;;;;;;;;;;18.60;49.60;;;;;;5026020;28;44612;-79
2022/01/14 04:34:18;;;;;;;;;;;18.60;49.60;;;;;;5042546;28;42826;-79
2022/01/14 04:36:43;;;;;;;;;;;18.60;49.60;;;;;;5043138;28;42983;-79
2022/01/14 04:39:10;;;;;;;;;;;18.60;49.50;;;;;;5044403;28;42907;-80
2022/01/14 04:41:35;;;;;;;;;;;18.60;49.50;;;;;;5043975;28;43143;-75
2022/01/14 04:44:01;;;;;;;;;;;18.60;49.40;;;;;;5044169;28;42975;-79
2022/01/14 04:48:52;;;;;;;;;;;18.60;49.40;;;;;;5042768;28;43118;-79
2022/01/14 04:51:21;;;;;;;;;;;18.60;49.70;;;;;;5043549;28;42951;-80
2022/01/14 04:53:46;;;;;;;;;;;18.60;49.50;;;;;;5044272;28;42858;-80
2022/01/14 04:56:12;;;;;;;;;;;18.60;49.50;;;;;;5044102;28;42951;-80
2022/01/14 04:58:37;;;;;;;;;;;18.60;49.40;;;;;;5043210;28;43016;-80
2022/01/14 05:01:03;;;;;;;;;;;18.60;49.40;;;;;;5043482;28;43422;-81
2022/01/14 05:03:30;;;;;;;;;;;18.60;49.50;;;;;;5042433;28;42921;-78
2022/01/14 05:05:58;;;;;;;;;;;18.60;49.40;;;;;;5043132;28;43049;-81
2022/01/14 05:08:27;;;;;;;;;;;18.60;49.40;;;;;;5043809;28;43019;-81
2022/01/14 05:13:19;;;;;;;;;;;18.60;49.30;;;;;;5043623;28;42873;-80
2022/01/14 05:15:45;;;;;;;;;;;18.60;49.30;;;;;;5024067;28;44605;-77
2022/01/14 05:18:10;;;;;;;;;;;18.60;49.30;;;;;;5042817;28;42921;-77
2022/01/14 05:20:36;;;;;;;;;;;18.60;49.30;;;;;;5042425;28;42962;-73
2022/01/14 05:23:01;;;;;;;;;;;18.60;49.30;;;;;;5037667;28;42997;-73
2022/01/14 05:25:27;;;;;;;;;;;18.50;49.20;;;;;;5042121;28;43717;-74
2022/01/14 05:27:52;;;;;;;;;;;18.50;49.20;;;;;;5043522;28;42809;-73
2022/01/14 05:30:18;;;;;;;;;;;18.60;49.20;;;;;;5022423;28;44367;-73
2022/01/14 05:32:46;;;;;;;;;;;18.60;49.30;;;;;;5038882;28;43140;-74
2022/01/14 05:35:12;;;;;;;;;;;18.50;49.20;;;;;;5036899;28;43058;-71
2022/01/14 05:37:38;;;;;;;;;;;18.60;49.20;;;;;;5039423;28;42855;-72
2022/01/14 05:40:04;;;;;;;;;;;17.10;48.60;;;;;;5044134;28;43635;-73
2022/01/14 05:42:34;;;;;;;;;;;18.50;49.20;;;;;;5046757;28;42946;-72
2022/01/14 05:45:00;;;;;;;;;;;18.50;49.20;;;;;;5028111;28;43940;-73
2022/01/14 05:47:25;;;;;;;;;;;18.50;49.20;;;;;;5046117;28;42842;-72
2022/01/14 05:49:51;;;;;;;;;;;18.50;49.20;;;;;;5044667;28;43641;-75
2022/01/14 05:52:17;;;;;;;;;;;18.50;49.30;;;;;;5044813;28;42972;-79
2022/01/14 05:54:43;;;;;;;;;;;18.50;49.20;;;;;;5046434;28;43430;-75
2022/01/14 05:57:08;;;;;;;;;;;18.50;49.00;;;;;;5045474;28;43007;-75
2022/01/14 05:59:34;;;;;;;;;;;18.50;49.00;;;;;;5046539;28;42920;-79
2022/01/14 06:01:59;;;;;;;;;;;18.50;48.90;;;;;;5033483;28;43133;-78
2022/01/14 06:04:25;;;;;;;;;;;18.50;48.80;;;;;;5026122;28;42975;-72
2022/01/14 06:06:51;;;;;;;;;;;18.50;48.80;;;;;;5022322;28;42953;-79
2022/01/14 06:09:17;;;;;;;;;;;18.50;48.70;;;;;;5046019;28;43686;-80
2022/01/14 06:11:43;;;;;;;;;;;18.50;48.70;;;;;;5046390;28;42898;-80
2022/01/14 06:14:08;;;;;;;;;;;18.50;48.70;;;;;;5046278;28;43689;-73
2022/01/14 06:16:34;;;;;;;;;;;18.50;48.60;;;;;;5028200;28;42883;-83
2022/01/14 06:18:59;;;;;;;;;;;18.50;48.30;;;;;;5026295;28;42970;-80
2022/01/14 06:21:25;;;;;;;;;;;18.50;48.20;;;;;;5029339;28;43047;-81
2022/01/14 06:23:50;;;;;;;;;;;18.50;48.30;;;;;;5025100;28;44112;-80
2022/01/14 06:26:16;;;;;;;;;;;18.50;48.30;;;;;;5036830;28;43031;-76
2022/01/14 06:28:43;;;;;;;;;;;18.50;48.20;;;;;;5043327;28;43735;-71
2022/01/14 06:31:09;;;;;;;;;;;18.50;48.20;;;;;;5035736;28;43216;-76
2022/01/14 06:33:34;;;;;;;;;;;18.40;48.20;;;;;;5036840;28;43034;-76
2022/01/14 06:36:00;;;;;;;;;;;18.40;47.80;;;;;;5030635;28;42886;-78
2022/01/14 06:38:25;;;;;;;;;;;18.40;47.30;;;;;;5044891;28;42980;-83
2022/01/14 06:40:51;;;;;;;;;;;18.40;46.20;;;;;;5044809;28;42967;-78
2022/01/14 06:43:17;;;;;;;;;;;18.40;46.70;;;;;;5043217;28;43856;-79
2022/01/14 06:45:42;;;;;;;;;;;18.40;46.20;;;;;;5044102;28;43075;-76
2022/01/14 06:48:08;;;;;;;;;;;18.40;45.10;;;;;;5045932;28;43815;-77
2022/01/14 06:50:34;;;;;;;;;;;18.40;45.50;;;;;;5044832;28;42955;-72
2022/01/14 06:52:59;;;;;;;;;;;18.40;44.40;;;;;;5044977;28;42914;-74
2022/01/14 06:55:25;;;;;;;;;;;18.40;46.50;;;;;;5045851;28;42968;-78
2022/01/14 06:57:50;;;;;;;;;;;18.30;45.80;;;;;;5045751;28;42893;-72
2022/01/14 07:00:17;;;;;;;;;;;18.30;44.40;;;;;;5032696;28;42997;-78
2022/01/14 07:02:42;;;;;;;;;;;18.30;45.10;;;;;;5045130;28;43589;-73
2022/01/14 07:05:08;;;;;;;;;;;18.30;45.10;;;;;;5035911;28;43031;-79
2022/01/14 07:07:34;;;;;;;;;;;18.30;46.60;;;;;;5043798;28;43142;-79
2022/01/14 07:10:01;;;;;;;;;;;18.30;46.10;;;;;;5034566;28;42905;-75
2022/01/14 07:12:28;;;;;;;;;;;18.30;45.40;;;;;;5043989;28;43627;-80
2022/01/14 07:14:54;;;;;;;;;;;18.30;48.10;;;;;;5039060;28;43960;-77
2022/01/14 07:17:22;;;;;;;;;;;18.30;46.50;;;;;;5039264;28;43559;-79
2022/01/14 07:19:50;;;;;;;;;;;18.30;46.00;;;;;;5045297;28;42900;-71
2022/01/14 07:22:16;;;;;;;;;;;18.30;48.50;;;;;;5044984;28;43733;-73
2022/01/14 07:24:42;;;;;;;;;;;18.30;48.70;;;;;;5044895;28;42898;-80
2022/01/14 07:27:07;;;;;;;;;;;18.30;48.90;;;;;;5045509;28;44198;-79
2022/01/14 07:29:33;;;;;;;;;;;18.40;48.80;;;;;;5046962;28;43117;-78
2022/01/14 07:31:58;;;;;;;;;;;18.40;48.80;;;;;;5057228;28;43542;-80
2022/01/14 07:34:24;;;;;;;;;;;18.40;49.00;;;;;;5050194;28;42884;-80
2022/01/14 07:36:50;;;;;;;;;;;18.40;48.90;;;;;;5045266;28;43343;-78
2022/01/14 07:39:15;;;;;;;;;;;18.40;48.80;;;;;;5045572;28;42834;-78
2022/01/14 07:41:41;;;;;;;;;;;18.40;48.90;;;;;;5045470;28;43469;-78
2022/01/14 07:44:06;;;;;;;;;;;18.40;49.00;;;;;;5045447;28;43139;-79
2022/01/14 07:46:32;;;;;;;;;;;18.40;48.80;;;;;;5045782;28;43623;-73
2022/01/14 07:48:58;;;;;;;;;;;18.40;48.80;;;;;;5045144;28;43252;-72
2022/01/14 07:51:23;;;;;;;;;;;18.40;49.10;;;;;;5044659;28;43976;-77
2022/01/14 07:53:49;;;;;;;;;;;18.40;48.80;;;;;;5045030;28;42905;-73
2022/01/14 07:56:15;;;;;;;;;;;18.40;49.00;;;;;;5044703;28;42945;-77
2022/01/14 07:58:41;;;;;;;;;;;18.40;49.20;;;;;;5045051;28;43103;-80
2022/01/14 08:01:07;;;;;;;;;;;18.40;49.40;;;;;;5044799;28;42918;-80
2022/01/14 08:03:33;;;;;;;;;;;18.40;49.50;;;;;;5045596;28;42867;-81
2022/01/14 08:06:00;;;;;;;;;;;18.40;49.60;;;;;;5044989;28;43767;-72
2022/01/14 08:08:25;;;;;;;;;;;18.40;49.60;;;;;;5045452;28;42925;-82
2022/01/14 08:10:51;;;;;;;;;;;18.40;50.00;;;;;;5045088;28;43549;-81
2022/01/14 08:13:17;;;;;;;;;;;18.40;49.60;;;;;;5044744;28;42920;-81
2022/01/14 08:15:42;;;;;;;;;;;18.40;49.80;;;;;;5044772;28;43814;-73
2022/01/14 08:18:09;;;;;;;;;;;18.40;49.70;;;;;;5044124;28;43003;-77
2022/01/14 08:20:34;;;;;;;;;;;18.40;49.70;;;;;;5044348;28;42913;-72
2022/01/14 08:23:00;;;;;;;;;;;18.40;49.70;;;;;;5044578;28;43028;-79
2022/01/14 08:25:26;;;;;;;;;;;18.40;49.80;;;;;;5044349;28;44033;-81
2022/01/14 08:27:52;;;;;;;;;;;18.40;49.60;;;;;;5026320;28;42967;-79
2022/01/14 08:30:17;;;;;;;;;;;18.40;49.70;;;;;;5043490;28;43280;-80
2022/01/14 08:32:43;;;;;;;;;;;18.40;49.80;;;;;;5044650;28;42993;-78
2022/01/14 08:35:09;;;;;;;;;;;18.40;49.60;;;;;;5044309;28;43502;-80
2022/01/14 08:37:34;;;;;;;;;;;18.40;49.50;;;;;;5045782;28;42971;-77
2022/01/14 08:40:00;;;;;;;;;;;18.40;49.90;;;;;;5026272;28;42862;-72
2022/01/14 08:42:25;;;;;;;;;;;18.40;49.80;;;;;;5044516;28;42868;-80
2022/01/14 08:44:51;;;;;;;;;;;18.40;49.60;;;;;;5043745;28;42995;-78
2022/01/14 08:47:16;;;;;;;;;;;18.40;49.70;;;;;;5044399;28;42975;-79
2022/01/14 08:49:43;;;;;;;;;;;18.40;49.70;;;;;;5044351;28;42921;-79
2022/01/14 08:52:10;;;;;;;;;;;18.40;49.60;;;;;;5044377;28;42914;-80
2022/01/14 08:54:35;;;;;;;;;;;18.50;49.70;;;;;;5044725;28;43785;-76
2022/01/14 08:57:04;;;;;;;;;;;18.40;50.10;;;;;;5044552;28;42995;-75
2022/01/14 08:59:30;;;;;;;;;;;18.40;50.00;;;;;;5044019;28;42936;-80
2022/01/14 09:01:56;;;;;;;;;;;18.50;49.80;;;;;;5044016;28;43492;-81
2022/01/14 09:04:22;;;;;;;;;;;18.40;50.00;;;;;;5044409;28;43609;-79
2022/01/14 09:06:47;;;;;;;;;;;18.40;49.80;;;;;;5044486;28;42897;-81
2022/01/14 09:09:13;;;;;;;;;;;18.40;46.80;;;;;;5044397;28;42833;-82
2022/01/14 09:11:38;;;;;;;;;;;18.40;45.60;;;;;;5044245;28;43058;-79
2022/01/14 09:14:04;;;;;;;;;;;18.40;46.50;;;;;;5044091;28;42877;-78
2022/01/14 09:16:29;;;;;;;;;;;18.40;45.00;;;;;;5046734;28;42905;-79
2022/01/14 09:18:55;;;;;;;;;;;18.40;46.20;;;;;;5047313;28;42857;-81
2022/01/14 09:21:20;;;;;;;;;;;18.40;46.30;;;;;;5047730;28;42922;-80
2022/01/14 09:24:02;;;;;;;;;;;18.40;45.40;;;;;;5047846;28;42955;-76
2022/01/14 09:26:28;;;;;;;;;;;18.40;45.80;;;;;;5045045;28;43149;-82
2022/01/14 09:28:53;;;;;;;;;;;18.40;47.40;;;;;;5047179;28;43258;-86
2022/01/14 09:31:19;;;;;;;;;;;18.40;46.60;;;;;;5047809;28;42995;-82
2022/01/14 09:33:44;;;;;;;;;;;18.40;46.50;;;;;;5035833;28;44094;-81
2022/01/14 09:36:10;;;;;;;;;;;18.40;45.90;;;;;;5009057;28;43020;-81
2022/01/14 09:38:36;;;;;;;;;;;18.40;46.20;;;;;;5043584;28;43515;-85
2022/01/14 09:41:01;;;;;;;;;;;18.40;46.30;;;;;;5034943;28;43061;-82
2022/01/14 09:43:27;;;;;;;;;;;18.50;46.30;;;;;;5027229;28;42960;-84
2022/01/14 09:45:53;;;;;;;;;;;18.40;46.20;;;;;;5027429;28;42911;-84
2022/01/14 09:48:19;;;;;;;;;;;18.50;46.20;;;;;;5043369;28;43746;-79
2022/01/14 09:50:45;;;;;;;;;;;18.50;46.00;;;;;;5035036;28;42941;-78
2022/01/14 09:53:11;;;;;;;;;;;18.50;46.00;;;;;;5026269;28;43164;-76
2022/01/14 09:55:37;;;;;;;;;;;18.60;45.90;;;;;;5038440;28;42926;-83
2022/01/14 09:58:02;;;;;;;;;;;18.70;44.30;;;;;;5031282;28;42931;-82
2022/01/14 10:00:28;;;;;;;;;;;18.80;42.90;;;;;;5026537;28;42982;-85
2022/01/14 10:02:53;;;;;;;;;;;19.00;42.70;;;;;;5026592;28;43686;-82
2022/01/14 10:05:31;;;;;;;;;;;19.00;42.10;;;;;;5026441;28;42980;-78
2022/01/14 10:08:11;;;;;;;;;;;19.10;42.50;;;;;;5027384;28;44075;-83
2022/01/14 10:10:41;;;;;;;;;;;19.30;42.30;;;;;;5026503;28;42822;-79
2022/01/14 10:13:25;;;;;;;;;;;19.00;42.20;;;;;;5025969;28;43631;-84
2022/01/14 10:15:52;;;;;;;;;;;18.90;42.80;;;;;;5026476;28;43020;-76
2022/01/14 10:18:19;;;;;;;;;;;18.90;42.90;;;;;;5026526;28;43574;-79
2022/01/14 10:20:44;;;;;;;;;;;18.90;43.70;;;;;;5025980;28;42904;-77
2022/01/14 10:23:12;;;;;;;;;;;18.80;43.40;;;;;;5026340;28;43005;-78
2022/01/14 10:25:38;;;;;;;;;;;18.80;43.60;;;;;;5012487;28;42951;-76
2022/01/14 10:28:15;;;;;;;;;;;18.70;44.30;;;;;;5027853;28;43851;-81
2022/01/14 10:30:44;;;;;;;;;;;18.70;44.80;;;;;;5025466;28;42950;-74
2022/01/14 10:33:10;;;;;;;;;;;18.70;44.80;;;;;;5029623;28;43191;-83
2022/01/14 10:35:42;;;;;;;;;;;18.70;45.00;;;;;;5008636;28;42918;-82
2022/01/14 10:38:11;;;;;;;;;;;18.70;44.80;;;;;;5013693;28;43815;-70
2022/01/14 10:40:42;;;;;;;;;;;18.70;45.00;;;;;;5032135;28;42972;-77
2022/01/14 10:43:08;;;;;;;;;;;18.70;45.00;;;;;;5045922;28;42964;-75
2022/01/14 10:45:35;;;;;;;;;;;18.70;45.00;;;;;;5046414;28;42897;-72
2022/01/14 10:48:04;;;;;;;;;;;18.70;45.10;;;;;;5045666;28;45373;-75
2022/01/14 10:50:36;;;;;;;;;;;18.70;45.30;;;;;;5045795;28;43038;-74
2022/01/14 10:53:03;;;;;;;;;;;18.70;45.20;;;;;;5046228;28;42913;-70
2022/01/14 10:55:34;;;;;;;;;;;18.70;45.20;;;;;;5045581;28;43163;-74
2022/01/14 10:58:02;;;;;;;;;;;18.70;45.10;;;;;;5045851;28;43383;-76
2022/01/14 11:00:27;;;;;;;;;;;18.70;45.20;;;;;;5027632;28;43223;-77
2022/01/14 11:02:53;;;;;;;;;;;18.70;45.20;;;;;;5045363;28;43998;-78
2022/01/14 11:05:23;;;;;;;;;;;18.70;45.20;;;;;;5045713;28;42980;-74
2022/01/14 11:07:49;;;;;;;;;;;18.70;45.30;;;;;;5045188;28;43029;-79
2022/01/14 11:10:15;;;;;;;;;;;18.70;45.20;;;;;;5045544;28;43023;-78
2022/01/14 11:12:41;;;;;;;;;;;18.70;45.20;;;;;;5045597;28;42962;-77
2022/01/14 11:15:07;;;;;;;;;;;18.70;45.20;;;;;;5045745;28;42949;-83
2022/01/14 11:17:35;;;;;;;;;;;18.70;45.30;;;;;;5045503;28;43702;-73
2022/01/14 11:20:02;;;;;;;;;;;18.70;45.20;;;;;;5045913;28;42858;-81
2022/01/14 11:25:12;;;;;;;;;;;18.70;45.20;;;;;;5045166;28;42980;-76
2022/01/14 11:27:38;;;;;;;;;;;18.70;45.10;;;;;;5045179;28;43248;-81
2022/01/14 11:30:03;;;;;;;;;;;18.70;45.10;;;;;;5046047;28;43089;-84
2022/01/14 11:32:49;;;;;;;;;;;18.70;45.20;;;;;;5045500;28;42907;-80
2022/01/14 11:35:26;;;;;;;;;;;18.70;45.20;;;;;;5045371;28;42831;-83
2022/01/14 11:37:51;;;;;;;;;;;18.70;45.00;;;;;;5044973;28;43506;-76
2022/01/14 11:40:17;;;;;;;;;;;18.70;45.10;;;;;;5049110;28;42960;-82
2022/01/14 11:42:58;;;;;;;;;;;18.70;45.40;;;;;;5028763;28;43083;-83
2022/01/14 11:45:39;;;;;;;;;;;18.70;45.10;;;;;;5024943;28;42918;-77
2022/01/14 11:48:04;;;;;;;;;;;18.70;45.10;;;;;;5024519;28;42973;-75
2022/01/14 11:50:30;;;;;;;;;;;18.70;45.00;;;;;;5037337;28;42945;-75
2022/01/14 11:52:59;;;;;;;;;;;18.70;44.70;;;;;;5024812;28;42962;-78
2022/01/14 11:55:27;;;;;;;;;;;18.80;44.80;;;;;;5024532;28;42839;-76
2022/01/14 11:57:54;;;;;;;;;;;18.80;45.10;;;;;;5024928;28;43404;-82
2022/01/14 12:02:55;;;;;;;;;;;18.80;45.10;;;;;;5038130;28;43477;-80
2022/01/14 12:05:22;;;;;;;;;;;18.80;45.10;;;;;;5023912;28;42990;-83
2022/01/14 12:08:10;;;;;;;;;;;18.80;45.20;;;;;;5030062;28;42988;-72
2022/01/14 12:10:36;;;;;;;;;;;18.80;45.60;;;;;;5026885;28;43849;-76
2022/01/14 12:13:21;;;;;;;;;;;18.70;45.10;;;;;;5041448;28;42908;-79
2022/01/14 12:15:54;;;;;;;;;;;18.70;45.10;;;;;;5037055;28;42932;-70
2022/01/14 12:18:40;;;;;;;;;;;18.70;45.10;;;;;;5035087;28;42932;-75
2022/01/14 12:21:05;;;;;;;;;;;18.70;45.10;;;;;;5036199;28;43115;-76
2022/01/14 12:23:31;;;;;;;;;;;18.70;45.10;;;;;;5043306;28;43014;-70
2022/01/14 12:26:11;;;;;;;;;;;18.80;45.10;;;;;;5033726;28;43013;-76
2022/01/14 12:28:36;;;;;;;;;;;18.80;45.10;;;;;;5028056;28;43066;-78
2022/01/14 12:31:03;;;;;;;;;;;18.70;45.00;;;;;;5033576;28;42981;-77
2022/01/14 12:33:42;;;;;;;;;;;19.40;45.30;;;;;;5030554;28;43471;-76
2022/01/14 12:36:08;;;;;;;;;;;18.80;39.00;;;;;;5024324;28;43164;-77
2022/01/14 12:38:34;;;;;;;;;;;18.70;37.30;;;;;;5028731;28;42993;-79
2022/01/14 12:41:00;;;;;;;;;;;18.60;36.70;;;;;;5031108;28;43183;-79
2022/01/14 12:43:26;;;;;;;;;;;18.60;34.90;;;;;;5023255;28;43036;-78
2022/01/14 12:45:59;;;;;;;;;;;18.60;34.20;;;;;;5027987;28;42854;-76
2022/01/14 12:48:39;;;;;;;;;;;18.60;33.50;;;;;;5031975;28;42976;-78
2022/01/14 12:51:05;;;;;;;;;;;18.50;35.40;;;;;;5025548;28;42832;-77
2022/01/14 12:53:30;;;;;;;;;;;18.50;33.70;;;;;;5041090;28;43065;-77
2022/01/14 12:55:58;;;;;;;;;;;18.40;33.70;;;;;;5034977;28;43031;-73
2022/01/14 12:58:24;;;;;;;;;;;18.40;32.40;;;;;;5040566;28;42976;-70
2022/01/14 13:00:49;;;;;;;;;;;18.30;33.10;;;;;;5039851;28;43074;-77
2022/01/14 13:03:16;;;;;;;;;;;18.20;32.80;;;;;;5033901;28;43038;-77
2022/01/14 13:05:42;;;;;;;;;;;18.20;33.60;;;;;;5040381;28;43489;-76
2022/01/14 13:08:08;;;;;;;;;;;18.20;32.80;;;;;;5040332;28;43342;-76
2022/01/14 13:10:34;;;;;;;;;;;18.20;33.10;;;;;;5034866;28;43283;-77
2022/01/14 13:13:03;;;;;;;;;;;18.20;34.30;;;;;;5040503;28;43028;-76
2022/01/14 13:15:29;;;;;;;;;;;18.20;34.50;;;;;;5028876;28;43436;-69
2022/01/14 13:18:03;;;;;;;;;;;18.20;36.00;;;;;;5023794;28;43978;-77
2022/01/14 13:20:30;;;;;;;;;;;18.30;36.60;;;;;;5040521;28;43288;-77
2022/01/14 13:22:55;;;;;;;;;;;18.30;33.50;;;;;;5040041;28;43300;-69
2022/01/14 13:25:25;;;;;;;;;;;18.30;35.20;;;;;;5019916;28;42893;-76
2022/01/14 13:27:54;;;;;;;;;;;18.30;33.20;;;;;;5035268;28;43645;-77
2022/01/14 13:30:21;;;;;;;;;;;18.30;33.80;;;;;;5042386;28;43094;-78
2022/01/14 13:32:49;;;;;;;;;;;18.30;32.60;;;;;;5042154;28;42881;-72
2022/01/14 13:35:22;;;;;;;;;;;18.30;32.30;;;;;;5043579;28;44298;-77
2022/01/14 13:37:50;;;;;;;;;;;18.20;31.80;;;;;;5042519;28;43784;-73
2022/01/14 13:40:17;;;;;;;;;;;18.20;31.90;;;;;;5044456;28;42916;-76
2022/01/14 13:43:02;;;;;;;;;;;18.10;32.00;;;;;;5044397;28;43102;-79
2022/01/14 13:45:28;;;;;;;;;;;18.20;31.80;;;;;;5046160;28;42972;-75
2022/01/14 13:48:09;;;;;;;;;;;18.20;32.00;;;;;;5026898;28;44208;-77
2022/01/14 13:50:40;;;;;;;;;;;18.10;32.80;;;;;;5044558;28;42883;-77
2022/01/14 13:53:05;;;;;;;;;;;18.20;31.40;;;;;;5044558;28;42907;-78
2022/01/14 13:55:36;;;;;;;;;;;18.00;31.20;;;;;;5043108;28;42900;-77
2022/01/14 13:58:23;;;;;;;;;;;18.00;31.40;;;;;;5042588;28;43557;-76
2022/01/14 14:00:49;;;;;;;;;;;18.00;31.80;;;;;;5043744;28;43000;-75
2022/01/14 14:03:22;;;;;;;;;;;18.00;32.00;;;;;;5045927;28;42989;-79
2022/01/14 14:06:00;;;;;;;;;;;18.00;31.50;;;;;;5046572;28;43138;-77
2022/01/14 14:17:08;;;;;;;;;;;17.90;31.70;;;;;;5047451;28;43478;-76
2022/01/14 14:19:48;;;;;;;;;;;17.90;31.60;;;;;;5046589;28;43527;-77
2022/01/14 14:22:13;;;;;;;;;;;17.90;31.40;;;;;;5046615;28;42949;-72
2022/01/14 14:24:39;;;;;;;;;;;17.80;31.60;;;;;;5046081;28;44342;-70
2022/01/14 14:27:09;;;;;;;;;;;17.90;31.40;;;;;;5026605;28;43050;-76
2022/01/14 14:29:34;;;;;;;;;;;17.90;31.10;;;;;;5027264;28;43711;-69
2022/01/14 14:32:13;;;;;;;;;;;17.80;30.80;;;;;;5007235;28;43605;-69
2022/01/14 14:34:39;;;;;;;;;;;17.70;30.80;;;;;;5026080;28;43007;-71
2022/01/14 14:37:04;;;;;;;;;;;17.60;31.10;;;;;;5026438;28;43016;-72
2022/01/14 14:39:30;;;;;;;;;;;17.60;30.90;;;;;;5046971;28;43777;-71
2022/01/14 14:41:56;;;;;;;;;;;17.50;31.00;;;;;;5044249;28;43122;-70
2022/01/14 14:44:22;;;;;;;;;;;17.50;31.30;;;;;;5025921;28;43411;-72
2022/01/14 14:46:47;;;;;;;;;;;17.50;31.70;;;;;;5030745;28;43617;-72
2022/01/14 14:49:13;;;;;;;;;;;17.40;31.10;;;;;;5026144;28;43537;-71
2022/01/14 14:51:39;;;;;;;;;;;17.40;31.80;;;;;;5025739;28;42949;-70
2022/01/14 14:54:05;;;;;;;;;;;17.40;31.50;;;;;;5025190;28;42940;-70